Time;durP1;ratioP1;P1;durP2;ratioP2;P2;SDS_P1;SDS_P2;PMS_P1;PMS_P2;Temp;Humidity;BMP_temperature;BMP_pressure;BME280_temperature;BME280_humidity;BME280_pressure;Samples;Min_cycle;Max_cycle;Signal;HPM_P1;HPM_P2
2023/12/04 00:44:56;;;;;;;6.57;2.90;;;-10.50;99.90;;;;;;1918636;73;26317;-88
2023/12/04 00:48:41;;;;;;;4.50;2.07;;;-10.50;99.90;;;;;;1893738;75;26416;-88
2023/12/04 01:17:11;;;;;;;5.33;3.20;;;-10.40;99.90;;;;;;1886754;74;28263;-88
2023/12/04 01:40:06;;;;;;;5.93;2.87;;;-10.20;99.90;;;;;;1995599;71;27015;-88
2023/12/04 01:42:59;;;;;;;3.10;1.73;;;-10.20;99.90;;;;;;1963356;72;25875;-87
2023/12/04 02:00:54;;;;;;;2.90;1.90;;;-10.40;99.90;;;;;;2014279;70;25558;-88
2023/12/04 02:10:46;;;;;;;5.80;1.83;;;-10.50;99.90;;;;;;2011180;69;25609;-88
2023/12/04 02:38:05;;;;;;;4.87;2.30;;;-10.90;99.90;;;;;;1948862;72;27859;-88
2023/12/04 02:41:40;;;;;;;2.57;1.83;;;-11.00;99.90;;;;;;1935835;73;25736;-88
2023/12/04 02:44:30;;;;;;;4.33;1.87;;;-11.00;99.90;;;;;;1910152;74;26027;-88
2023/12/04 03:06:25;;;;;;;4.07;2.27;;;-11.20;99.90;;;;;;1912695;72;25704;-88
2023/12/04 03:23:29;;;;;;;3.27;1.60;;;-11.30;99.90;;;;;;1933390;70;27098;-87
2023/12/04 03:32:21;;;;;;;3.50;1.43;;;-11.70;99.90;;;;;;1913288;74;25545;-88
2023/12/04 03:35:36;;;;;;;2.17;1.23;;;-11.70;99.90;;;;;;1897618;74;25559;-88
2023/12/04 03:41:42;;;;;;;2.33;1.37;;;-11.80;99.90;;;;;;1948475;72;26664;-87
2023/12/04 03:44:33;;;;;;;6.40;1.30;;;-11.80;99.90;;;;;;1936337;73;25864;-88
2023/12/04 03:47:23;;;;;;;4.47;2.00;;;-11.80;99.90;;;;;;1885712;75;25347;-88
2023/12/04 03:50:28;;;;;;;3.10;1.43;;;-11.80;99.90;;;;;;1913670;75;25996;-88
2023/12/04 03:53:46;;;;;;;3.50;1.70;;;-11.80;99.90;;;;;;1901375;75;25537;-88
2023/12/04 03:56:38;;;;;;;4.40;1.80;;;-11.90;99.90;;;;;;1913256;75;25911;-88
2023/12/04 03:59:33;;;;;;;2.47;1.70;;;-11.90;99.90;;;;;;1904311;75;25532;-88
2023/12/04 04:02:26;;;;;;;3.00;1.93;;;-11.80;99.90;;;;;;1903811;75;26278;-88
2023/12/04 04:05:29;;;;;;;2.80;1.60;;;-11.90;99.90;;;;;;1896743;75;26004;-87
2023/12/04 04:08:38;;;;;;;1.80;1.47;;;-12.00;99.90;;;;;;1863933;76;25544;-87
2023/12/04 04:15:27;;;;;;;3.60;1.77;;;-12.30;99.90;;;;;;1868847;76;25569;-87
2023/12/04 04:18:44;;;;;;;2.10;1.60;;;-12.30;99.90;;;;;;1863985;76;25954;-87
2023/12/04 04:21:53;;;;;;;2.90;1.40;;;-12.30;99.90;;;;;;1846611;77;27191;-87
2023/12/04 04:24:51;;;;;;;1.53;1.30;;;-12.40;99.90;;;;;;1833764;76;25375;-88
2023/12/04 04:27:59;;;;;;;2.60;1.40;;;-12.40;99.90;;;;;;1875521;76;25373;-87
2023/12/04 04:34:35;;;;;;;2.10;1.57;;;-12.40;99.90;;;;;;1947694;72;28647;-88
2023/12/04 04:37:30;;;;;;;3.10;1.57;;;-12.50;99.90;;;;;;1933416;73;25516;-88
2023/12/04 04:40:36;;;;;;;1.93;1.40;;;-12.50;99.90;;;;;;1918831;73;25497;-87
2023/12/04 04:43:39;;;;;;;3.53;1.80;;;-12.60;99.90;;;;;;1932893;73;25342;-87
2023/12/04 04:46:48;;;;;;;4.27;1.63;;;-12.60;99.90;;;;;;1903184;75;25599;-88
2023/12/04 04:49:43;;;;;;;2.30;1.47;;;-12.60;99.90;;;;;;1902739;74;26001;-88
2023/12/04 05:23:44;;;;;;;5.43;2.40;;;-13.00;99.90;;;;;;1943016;72;27018;-87
2023/12/04 05:26:35;;;;;;;3.10;1.73;;;-13.00;99.90;;;;;;1932183;72;25463;-87
2023/12/04 05:29:30;;;;;;;4.37;1.70;;;-13.10;99.90;;;;;;1919938;72;25904;-87
2023/12/04 05:32:19;;;;;;;2.90;1.57;;;-13.20;99.90;;;;;;1885654;75;25473;-87
2023/12/04 05:35:10;;;;;;;2.83;1.50;;;-13.20;99.90;;;;;;1887325;75;25435;-87
2023/12/04 05:38:01;;;;;;;4.97;1.73;;;-13.20;99.90;;;;;;1894956;75;25304;-87
2023/12/04 05:40:49;;;;;;;2.63;1.37;;;-13.30;99.90;;;;;;1875950;75;25406;-87
2023/12/04 05:43:42;;;;;;;2.60;1.40;;;-13.30;99.90;;;;;;1881691;75;25348;-88
2023/12/04 05:46:52;;;;;;;3.23;1.83;;;-13.30;99.90;;;;;;1887481;75;26026;-88
2023/12/04 05:49:54;;;;;;;3.40;1.37;;;-13.20;99.90;;;;;;1882043;75;26065;-88
2023/12/04 05:52:43;;;;;;;3.00;1.57;;;-13.30;99.90;;;;;;1884232;75;25712;-88
2023/12/04 05:55:33;;;;;;;3.00;1.63;;;-13.40;99.90;;;;;;1889602;75;25845;-88
2023/12/04 05:58:22;;;;;;;7.77;2.33;;;-13.40;99.90;;;;;;1891746;75;25480;-87
2023/12/04 06:01:10;;;;;;;3.00;1.50;;;-13.40;99.90;;;;;;1883580;75;25471;-86
2023/12/04 06:07:49;;;;;;;6.60;2.57;;;-13.40;99.90;;;;;;1986491;71;26966;-87
2023/12/04 06:10:40;;;;;;;4.30;1.90;;;-13.40;99.90;;;;;;1972718;72;25447;-87
2023/12/04 06:13:29;;;;;;;11.37;2.27;;;-13.30;99.90;;;;;;2031203;69;25368;-88
2023/12/04 06:16:17;;;;;;;6.30;2.10;;;-13.40;99.90;;;;;;2044590;69;25332;-88
2023/12/04 06:19:06;;;;;;;5.33;2.83;;;-13.20;99.90;;;;;;2046218;69;25580;-88
2023/12/04 06:21:57;;;;;;;4.60;1.93;;;-13.10;99.90;;;;;;2043153;69;25782;-88
2023/12/04 06:24:48;;;;;;;4.77;2.50;;;-13.10;99.90;;;;;;2038665;69;25502;-88
2023/12/04 06:27:39;;;;;;;5.30;2.70;;;-13.10;99.90;;;;;;2036017;69;25457;-88
2023/12/04 06:30:28;;;;;;;4.77;2.33;;;-13.00;99.90;;;;;;2039572;69;25279;-88
2023/12/04 07:05:41;;;;;;;8.00;2.87;;;-12.70;99.90;;;;;;1910421;74;26630;-88
2023/12/04 07:08:34;;;;;;;6.13;2.63;;;-12.70;99.90;;;;;;1872767;74;25334;-88
2023/12/04 07:11:22;;;;;;;3.40;2.23;;;-12.60;99.90;;;;;;1897131;74;25948;-88
2023/12/04 07:14:14;;;;;;;3.70;2.40;;;-12.60;99.90;;;;;;1885400;74;25588;-88
2023/12/04 07:17:04;;;;;;;6.27;3.30;;;-12.60;99.90;;;;;;1932287;73;25546;-88
2023/12/04 10:10:42;;;;;;;3.20;1.93;;;-10.70;99.90;;;;;;1953579;72;27484;-88
2023/12/04 10:16:35;;;;;;;1.50;1.20;;;-10.70;99.90;;;;;;1982433;71;27022;-88
2023/12/04 10:19:30;;;;;;;1.80;1.43;;;-10.70;99.90;;;;;;1917885;73;25619;-87
2023/12/04 10:24:59;;;;;;;2.33;1.40;;;-10.70;99.90;;;;;;1951458;72;27058;-88
2023/12/04 10:27:50;;;;;;;4.43;1.70;;;-10.60;99.90;;;;;;1933778;73;25611;-87
2023/12/04 10:30:39;;;;;;;3.43;1.70;;;-10.70;99.90;;;;;;1924397;73;25674;-88
2023/12/04 10:33:30;;;;;;;3.37;1.70;;;-10.60;99.90;;;;;;1940660;73;25696;-87
2023/12/04 10:36:20;;;;;;;2.93;1.50;;;-10.50;99.90;;;;;;1938738;73;26158;-87
2023/12/04 10:39:13;;;;;;;3.50;1.83;;;-10.60;99.90;;;;;;1925152;73;25997;-87
2023/12/04 10:42:04;;;;;;;2.40;1.93;;;-10.60;99.90;;;;;;1920183;73;25735;-88
2023/12/04 10:44:55;;;;;;;2.50;1.80;;;-10.50;99.90;;;;;;1923915;73;26241;-88
2023/12/04 10:47:47;;;;;;;5.47;1.83;;;-10.40;99.90;;;;;;1922910;73;25656;-87
2023/12/04 11:07:31;;;;;;;5.53;2.13;;;-10.00;99.90;;;;;;1942328;72;27085;-88
2023/12/04 11:13:16;;;;;;;1.63;1.50;;;-10.00;99.90;;;;;;1946112;72;27459;-88
2023/12/04 11:16:08;;;;;;;3.93;1.73;;;-10.00;99.90;;;;;;1922268;73;25992;-88
2023/12/04 11:19:00;;;;;;;3.50;2.10;;;-9.90;99.90;;;;;;1922122;73;25734;-88
2023/12/04 11:21:53;;;;;;;3.67;1.77;;;-9.90;99.90;;;;;;1928723;73;25872;-88
2023/12/04 11:24:42;;;;;;;1.50;1.03;;;-9.90;99.90;;;;;;1924842;73;26294;-88
2023/12/04 11:27:31;;;;;;;5.33;1.80;;;-9.90;99.90;;;;;;1935708;73;25734;-88
2023/12/04 11:30:23;;;;;;;2.47;1.90;;;-9.90;99.90;;;;;;1937042;73;26204;-88
2023/12/04 11:33:32;;;;;;;2.00;1.50;;;-9.80;99.90;;;;;;1948297;73;25722;-88
2023/12/04 11:36:22;;;;;;;3.97;1.60;;;-9.70;99.90;;;;;;1943833;73;26256;-88
2023/12/04 11:39:12;;;;;;;3.47;1.83;;;-9.60;99.90;;;;;;1941596;73;26090;-88
2023/12/04 11:42:01;;;;;;;2.10;1.17;;;-9.50;99.90;;;;;;1948864;72;26054;-88
2023/12/04 11:44:52;;;;;;;2.37;1.70;;;-9.50;99.90;;;;;;1946264;72;25711;-89
2023/12/04 11:51:11;;;;;;;1.80;1.27;;;-9.50;99.90;;;;;;1987669;71;27100;-88
2023/12/04 11:54:04;;;;;;;2.80;1.97;;;-9.50;99.90;;;;;;1963261;72;25861;-88
2023/12/04 11:57:24;;;;;;;2.80;1.80;;;-9.50;99.90;;;;;;2029711;69;25857;-88
2023/12/04 12:00:18;;;;;;;4.20;2.17;;;-9.40;99.90;;;;;;2039388;69;25889;-88
2023/12/04 12:03:09;;;;;;;1.73;1.50;;;-9.50;99.90;;;;;;2036108;69;25895;-88
2023/12/04 12:06:05;;;;;;;5.17;2.07;;;-9.60;99.90;;;;;;2040863;69;26369;-89
2023/12/04 12:08:54;;;;;;;3.83;1.67;;;-9.50;99.90;;;;;;2045487;69;25619;-88
2023/12/04 12:11:45;;;;;;;4.63;2.13;;;-9.50;99.90;;;;;;2042426;69;25820;-90
2023/12/04 12:14:34;;;;;;;5.30;2.07;;;-9.40;99.90;;;;;;2032285;69;25871;-88
2023/12/04 12:33:43;;;;;;;4.03;2.50;;;-9.30;99.90;;;;;;1930419;72;27047;-88
2023/12/04 13:04:54;;;;;;;5.00;2.43;;;-9.80;99.90;;;;;;1984596;71;26350;-88
2023/12/04 13:07:44;;;;;;;5.93;2.60;;;-10.10;99.90;;;;;;1916060;72;26504;-88
2023/12/04 13:10:32;;;;;;;4.77;2.20;;;-10.20;99.90;;;;;;1916311;73;26485;-88
2023/12/04 13:13:24;;;;;;;5.03;2.53;;;-10.30;99.90;;;;;;1949661;72;26791;-88
2023/12/04 13:16:13;;;;;;;3.77;2.30;;;-10.40;99.90;;;;;;1938270;72;26386;-88
2023/12/04 13:19:02;;;;;;;6.63;2.70;;;-10.40;99.90;;;;;;1895736;73;26143;-88
2023/12/04 13:21:53;;;;;;;6.67;2.60;;;-10.40;99.90;;;;;;1944461;73;25626;-88
2023/12/04 13:24:42;;;;;;;5.33;1.97;;;-10.40;99.90;;;;;;1952117;72;25668;-88
2023/12/04 13:27:31;;;;;;;5.53;2.67;;;-10.40;99.90;;;;;;1892009;74;26442;-88
2023/12/04 13:30:20;;;;;;;5.37;2.10;;;-10.50;99.90;;;;;;1878239;74;25722;-88
2023/12/04 13:33:11;;;;;;;6.07;2.73;;;-10.60;99.90;;;;;;1944670;72;25758;-88
2023/12/04 13:35:59;;;;;;;7.03;2.83;;;-10.60;99.90;;;;;;1897306;73;25763;-87
2023/12/04 13:38:48;;;;;;;20.20;5.07;;;-10.70;99.90;;;;;;1889177;74;26070;-87
2023/12/04 14:15:57;;;;;;;30.23;10.33;;;-9.90;99.90;;;;;;1941525;72;27554;-88
2023/12/04 14:18:46;;;;;;;42.90;13.17;;;-9.90;99.90;;;;;;1929712;73;25910;-88
2023/12/04 14:37:57;;;;;;;10.70;4.40;;;-10.20;99.90;;;;;;1960676;72;26980;-87
2023/12/04 14:40:48;;;;;;;12.57;4.83;;;-10.20;99.90;;;;;;1965523;72;25977;-88
2023/12/04 14:43:38;;;;;;;11.30;3.90;;;-10.20;99.90;;;;;;1970806;72;25638;-88
2023/12/04 14:46:27;;;;;;;8.57;3.80;;;-10.20;99.90;;;;;;1967338;72;25739;-88
2023/12/04 14:49:17;;;;;;;12.20;4.87;;;-10.20;99.90;;;;;;1948751;73;26098;-88
2023/12/04 14:52:07;;;;;;;14.10;5.33;;;-10.40;99.90;;;;;;1951499;72;26209;-87
2023/12/04 14:55:39;;;;;;;12.60;5.53;;;-10.50;99.90;;;;;;1956047;72;25683;-88
2023/12/04 14:58:40;;;;;;;13.60;5.87;;;-10.60;99.90;;;;;;1970328;72;26270;-88
2023/12/04 15:18:29;;;;;;;13.73;4.97;;;-11.20;99.90;;;;;;1992786;71;27049;-88
2023/12/04 15:20:46;;;;;;;6.07;2.90;;;-11.30;99.90;;;;;;1946856;72;25587;-87
2023/12/04 15:23:36;;;;;;;7.27;3.70;;;-11.40;99.90;;;;;;1938433;73;25620;-88
2023/12/04 15:29:11;;;;;;;6.60;3.23;;;-11.40;99.90;;;;;;1905333;74;27271;-88
2023/12/04 15:35:23;;;;;;;11.57;3.70;;;-11.50;99.90;;;;;;1986559;71;27030;-88
2023/12/04 15:38:15;;;;;;;10.47;3.43;;;-11.60;99.90;;;;;;2029396;69;25479;-88
2023/12/04 15:41:04;;;;;;;20.77;3.67;;;-11.70;99.90;;;;;;2014395;70;25389;-88
2023/12/04 16:00:26;;;;;;;15.27;6.27;;;-12.40;99.90;;;;;;1946401;72;26936;-87
2023/12/04 16:03:20;;;;;;;11.67;4.90;;;-12.50;99.90;;;;;;1926221;73;25947;-88
2023/12/04 16:06:15;;;;;;;10.77;4.50;;;-12.50;99.90;;;;;;1938666;72;25395;-87
2023/12/04 16:09:04;;;;;;;10.73;4.37;;;-12.60;99.90;;;;;;1942009;73;25388;-88
2023/12/04 16:14:44;;;;;;;13.83;5.53;;;-12.70;99.90;;;;;;1953286;72;26630;-87
2023/12/04 16:20:50;;;;;;;18.83;7.27;;;-12.90;99.90;;;;;;1969453;71;27110;-87
2023/12/04 16:23:42;;;;;;;15.23;6.10;;;-13.00;99.90;;;;;;1921504;73;25345;-87
2023/12/04 16:26:30;;;;;;;10.70;4.70;;;-13.00;99.90;;;;;;1953875;72;25532;-87
2023/12/04 16:29:19;;;;;;;10.50;4.50;;;-13.00;99.90;;;;;;1948462;72;25429;-87
2023/12/04 16:49:05;;;;;;;14.90;6.17;;;-13.10;99.90;;;;;;1979031;71;27488;-87
2023/12/04 16:51:55;;;;;;;20.43;8.80;;;-13.20;99.90;;;;;;2021919;70;25261;-86
2023/12/04 16:54:44;;;;;;;17.83;6.50;;;-13.20;99.90;;;;;;2022858;70;26008;-87
2023/12/04 16:57:33;;;;;;;11.43;4.43;;;-13.20;99.90;;;;;;2019164;70;25317;-86
2023/12/04 17:03:11;;;;;;;10.70;4.23;;;-13.30;99.90;;;;;;1949794;72;27147;-87
2023/12/04 17:06:01;;;;;;;17.90;4.57;;;-13.40;99.90;;;;;;1924174;73;25499;-87
2023/12/04 17:08:49;;;;;;;11.17;4.73;;;-13.50;99.90;;;;;;1936612;73;25466;-87
2023/12/04 17:14:30;;;;;;;9.60;4.43;;;-13.60;99.90;;;;;;1954640;72;27164;-87
2023/12/04 17:17:18;;;;;;;12.83;4.67;;;-13.60;99.90;;;;;;1953251;73;25472;-87
2023/12/04 17:20:09;;;;;;;13.67;5.80;;;-13.70;99.90;;;;;;1949860;72;25404;-87
2023/12/04 17:22:58;;;;;;;25.90;7.40;;;-13.80;99.90;;;;;;1936753;73;25375;-86
2023/12/04 17:25:49;;;;;;;18.70;6.87;;;-14.00;99.90;;;;;;1948641;73;25414;-86
2023/12/04 17:28:38;;;;;;;23.37;8.30;;;-14.00;99.90;;;;;;1948434;73;25659;-87
2023/12/04 17:31:28;;;;;;;20.10;6.00;;;-14.00;99.90;;;;;;1941337;72;25507;-86
2023/12/04 17:34:22;;;;;;;16.93;5.97;;;-14.00;99.90;;;;;;1909240;73;25952;-87
2023/12/04 17:37:10;;;;;;;20.37;5.43;;;-13.80;99.90;;;;;;1903289;73;25578;-87
2023/12/04 17:39:59;;;;;;;15.07;5.20;;;-13.90;99.90;;;;;;1889086;76;25495;-87
2023/12/04 17:42:48;;;;;;;9.77;5.47;;;-13.70;99.90;;;;;;1941776;72;25997;-87
2023/12/04 17:51:17;;;;;;;32.33;11.30;;;-14.00;99.90;;;;;;1975757;71;27410;-87
2023/12/04 17:54:24;;;;;;;33.77;8.17;;;-14.10;99.90;;;;;;1936915;72;25406;-87
2023/12/04 17:57:12;;;;;;;20.17;6.73;;;-14.10;99.90;;;;;;2026404;70;25850;-86
2023/12/04 18:00:00;;;;;;;18.03;6.00;;;-14.30;99.90;;;;;;2014507;70;25835;-86
2023/12/04 18:05:32;;;;;;;18.30;5.87;;;-14.50;99.90;;;;;;1951432;72;27029;-86
2023/12/04 18:08:21;;;;;;;23.63;8.43;;;-14.40;99.90;;;;;;1855381;76;25904;-87
2023/12/04 18:11:10;;;;;;;30.17;9.73;;;-14.30;99.90;;;;;;1907069;74;25925;-87
2023/12/04 18:14:00;;;;;;;27.57;8.30;;;-14.30;99.90;;;;;;1917902;73;25386;-87
2023/12/04 18:19:32;;;;;;;24.23;8.30;;;-14.30;99.90;;;;;;1931709;72;27107;-87
2023/12/04 18:22:22;;;;;;;28.50;7.97;;;-14.30;99.90;;;;;;1902324;75;25548;-86
2023/12/04 18:25:13;;;;;;;23.13;7.90;;;-14.60;99.90;;;;;;1889499;75;25733;-86
2023/12/04 18:28:04;;;;;;;35.97;8.67;;;-14.60;99.90;;;;;;1883363;75;26768;-87
2023/12/04 18:30:53;;;;;;;24.07;6.83;;;-14.60;99.90;;;;;;1909200;75;25402;-86
2023/12/04 18:33:49;;;;;;;30.57;8.80;;;-14.60;99.90;;;;;;1903186;75;25442;-86
2023/12/04 18:39:25;;;;;;;24.47;7.67;;;-14.70;99.90;;;;;;1952815;72;26909;-88
2023/12/04 18:42:15;;;;;;;29.43;9.20;;;-14.70;99.90;;;;;;1923195;72;25438;-86
2023/12/04 18:47:54;;;;;;;28.60;9.07;;;-14.60;99.90;;;;;;1944992;72;27090;-86
2023/12/04 18:50:43;;;;;;;25.87;8.67;;;-14.50;99.90;;;;;;1920242;73;25353;-86
2023/12/04 18:57:48;;;;;;;30.40;9.97;;;-14.50;99.90;;;;;;1971587;71;26408;-86
2023/12/04 19:00:38;;;;;;;17.27;6.60;;;-14.50;99.90;;;;;;1931568;73;25519;-86
2023/12/04 19:03:26;;;;;;;22.50;7.07;;;-14.60;99.90;;;;;;2009655;70;25944;-86
2023/12/04 19:06:15;;;;;;;25.50;6.17;;;-14.60;99.90;;;;;;2017801;70;25359;-86
2023/12/04 19:09:04;;;;;;;23.67;6.53;;;-14.60;99.90;;;;;;2006388;70;25940;-87
2023/12/04 19:11:55;;;;;;;17.67;6.43;;;-14.70;99.90;;;;;;2016993;70;25333;-86
2023/12/04 19:17:28;;;;;;;22.80;6.90;;;-14.90;99.90;;;;;;1898097;74;27100;-86
2023/12/04 19:20:19;;;;;;;32.63;7.67;;;-14.90;99.90;;;;;;1835038;77;25489;-86
2023/12/04 19:23:07;;;;;;;28.40;8.33;;;-14.80;99.90;;;;;;1852780;75;25238;-86
2023/12/04 19:25:56;;;;;;;25.33;7.83;;;-14.80;99.90;;;;;;1882583;75;25475;-86
2023/12/04 19:28:45;;;;;;;19.37;7.77;;;-14.80;99.90;;;;;;1876282;75;25832;-87
2023/12/04 19:31:33;;;;;;;37.77;10.33;;;-14.80;99.90;;;;;;1874818;76;25524;-86
2023/12/04 19:34:22;;;;;;;25.77;7.33;;;-14.80;99.90;;;;;;1860269;75;25489;-86
2023/12/04 19:37:14;;;;;;;43.17;13.03;;;-14.80;99.90;;;;;;1871510;76;25487;-86
2023/12/04 19:40:04;;;;;;;43.77;13.97;;;-14.80;99.90;;;;;;1880385;76;25539;-86
2023/12/04 19:42:52;;;;;;;30.40;11.93;;;-14.80;99.90;;;;;;1875787;75;25419;-86
2023/12/04 19:45:41;;;;;;;28.80;9.90;;;-14.80;99.90;;;;;;1876784;75;25828;-86
2023/12/04 19:48:40;;;;;;;24.80;8.57;;;-14.90;99.90;;;;;;1865039;76;25260;-85
2023/12/04 19:51:28;;;;;;;25.60;7.50;;;-14.90;99.90;;;;;;1876747;75;25470;-86
2023/12/04 19:54:17;;;;;;;17.90;7.20;;;-14.90;99.90;;;;;;1875217;76;25753;-85
2023/12/04 20:00:23;;;;;;;26.07;9.53;;;-14.90;99.90;;;;;;1941868;72;26306;-86
2023/12/04 20:05:59;;;;;;;23.60;8.33;;;-15.00;99.90;;;;;;1943484;72;27545;-86
2023/12/04 20:45:04;;;;;;;32.87;8.80;;;-14.90;99.90;;;;;;1987034;70;25546;-92
2023/12/04 20:48:13;;;;;;;23.07;8.07;;;-14.90;99.90;;;;;;1952699;71;25416;-89
2023/12/04 20:51:02;;;;;;;17.57;7.87;;;-14.90;99.90;;;;;;1982357;70;25403;-89
2023/12/04 20:53:52;;;;;;;19.87;7.50;;;-15.00;99.90;;;;;;1971933;71;25409;-91
2023/12/04 20:56:42;;;;;;;21.60;7.07;;;-15.00;99.90;;;;;;1965392;71;25510;-89
2023/12/04 20:59:46;;;;;;;30.87;6.90;;;-15.00;99.90;;;;;;1974601;72;25882;-91
2023/12/04 21:05:21;;;;;;;28.63;7.27;;;-15.10;99.90;;;;;;2021239;69;27022;-87
2023/12/04 21:08:11;;;;;;;24.13;6.50;;;-15.10;99.90;;;;;;1966054;72;25942;-87
2023/12/04 21:11:00;;;;;;;21.63;5.50;;;-15.10;99.90;;;;;;1976257;72;25398;-87
2023/12/04 21:13:59;;;;;;;21.03;6.33;;;-15.00;99.90;;;;;;1958601;72;25381;-87
2023/12/04 21:16:47;;;;;;;19.30;6.50;;;-14.90;99.90;;;;;;1970750;72;25420;-87
2023/12/04 21:23:22;;;;;;;23.07;7.23;;;-14.80;99.90;;;;;;1976839;71;26362;-87
2023/12/04 21:26:11;;;;;;;21.57;7.63;;;-14.80;99.90;;;;;;1969442;72;25540;-87
2023/12/04 21:29:00;;;;;;;16.83;5.30;;;-14.80;99.90;;;;;;1965887;72;25351;-87
2023/12/04 21:31:49;;;;;;;13.47;5.13;;;-14.70;99.90;;;;;;1954108;72;25385;-87
2023/12/04 21:34:37;;;;;;;15.97;4.77;;;-14.70;99.90;;;;;;1964391;72;26052;-86
2023/12/04 21:37:32;;;;;;;15.13;6.10;;;-14.60;99.90;;;;;;1963382;72;25457;-87
2023/12/04 21:40:21;;;;;;;23.23;5.53;;;-14.50;99.90;;;;;;1970776;72;25870;-87
2023/12/04 21:43:10;;;;;;;16.43;5.50;;;-14.40;99.90;;;;;;1953926;72;25914;-86
2023/12/04 21:46:05;;;;;;;11.43;4.77;;;-14.50;99.90;;;;;;1941205;72;25431;-86
2023/12/04 21:48:56;;;;;;;11.63;4.40;;;-14.50;99.90;;;;;;1923696;73;25534;-86
2023/12/04 21:54:35;;;;;;;11.70;4.03;;;-14.50;99.90;;;;;;1955424;72;27488;-87
2023/12/04 21:57:28;;;;;;;15.63;5.17;;;-14.40;99.90;;;;;;1929844;73;25925;-86
2023/12/04 22:00:20;;;;;;;8.37;3.23;;;-14.40;99.90;;;;;;1927103;73;25533;-87
2023/12/04 22:05:52;;;;;;;6.67;3.43;;;-14.50;99.90;;;;;;1941631;72;27142;-87
2023/12/04 22:08:40;;;;;;;15.87;4.90;;;-14.60;99.90;;;;;;1921815;73;25352;-87
2023/12/04 22:11:29;;;;;;;12.80;3.87;;;-14.50;99.90;;;;;;1925990;73;25908;-86
2023/12/04 22:17:03;;;;;;;11.90;3.40;;;-14.40;99.90;;;;;;1909446;74;27121;-87
2023/12/04 22:19:54;;;;;;;8.30;3.13;;;-14.50;99.90;;;;;;1871919;76;25539;-87
2023/12/04 22:22:43;;;;;;;12.03;3.40;;;-14.60;99.90;;;;;;1862650;76;25445;-87
2023/12/04 22:25:34;;;;;;;7.83;3.40;;;-14.80;99.90;;;;;;1872468;76;25456;-87
2023/12/04 22:28:22;;;;;;;6.03;2.73;;;-14.80;99.90;;;;;;1841402;76;25769;-88
2023/12/04 22:31:13;;;;;;;4.80;3.27;;;-14.90;99.90;;;;;;1831708;78;25480;-88
2023/12/04 22:34:02;;;;;;;5.67;2.97;;;-15.00;99.90;;;;;;1830809;76;25866;-87
2023/12/04 22:36:51;;;;;;;7.50;3.20;;;-15.00;99.90;;;;;;1806845;77;25380;-86
2023/12/04 22:39:40;;;;;;;9.37;3.17;;;-15.00;99.90;;;;;;1838346;76;25907;-86
2023/12/04 22:45:17;;;;;;;9.97;3.97;;;-15.00;99.90;;;;;;1937622;72;27107;-87
2023/12/04 22:51:07;;;;;;;8.03;3.10;;;-14.90;99.90;;;;;;1941130;72;27145;-87
2023/12/04 22:53:55;;;;;;;8.93;3.13;;;-14.80;99.90;;;;;;1927766;73;25494;-87
2023/12/04 22:56:44;;;;;;;11.43;3.70;;;-14.80;99.90;;;;;;1934700;72;25388;-87
2023/12/04 23:02:26;;;;;;;8.70;2.70;;;-15.00;99.90;;;;;;1942761;72;26961;-86
2023/12/04 23:05:16;;;;;;;8.30;3.13;;;-15.10;99.90;;;;;;1939045;73;26647;-86
2023/12/04 23:08:06;;;;;;;11.07;3.43;;;-15.20;99.90;;;;;;1926986;72;25449;-86
2023/12/04 23:10:55;;;;;;;10.47;3.87;;;-15.20;99.90;;;;;;1946227;72;26273;-87
2023/12/04 23:13:44;;;;;;;4.27;2.37;;;-15.20;99.90;;;;;;1919890;72;25530;-86
2023/12/04 23:16:32;;;;;;;3.10;2.70;;;-15.30;99.90;;;;;;1924519;73;25848;-86
2023/12/04 23:19:21;;;;;;;13.37;3.20;;;-15.30;99.90;;;;;;1931688;72;25521;-86
2023/12/04 23:22:11;;;;;;;6.50;2.93;;;-15.30;99.90;;;;;;1936826;72;25503;-87
2023/12/04 23:24:59;;;;;;;14.97;4.80;;;-15.30;99.90;;;;;;1910842;73;25419;-87
2023/12/04 23:27:47;;;;;;;7.13;2.37;;;-15.30;99.90;;;;;;1924211;72;25850;-87
2023/12/04 23:30:42;;;;;;;13.37;2.70;;;-15.30;99.90;;;;;;1939655;72;25406;-87
2023/12/04 23:36:13;;;;;;;6.43;2.93;;;-15.50;99.90;;;;;;1951572;72;27901;-87
2023/12/04 23:39:02;;;;;;;10.67;2.97;;;-15.50;99.90;;;;;;1926829;73;25619;-87
2023/12/04 23:41:50;;;;;;;7.00;2.60;;;-15.50;99.90;;;;;;1937822;73;25383;-87
2023/12/04 23:44:39;;;;;;;5.70;2.37;;;-15.50;99.90;;;;;;1926960;73;25450;-87
2023/12/04 23:47:28;;;;;;;9.07;3.13;;;-15.40;99.90;;;;;;1892328;74;25333;-87
2023/12/04 23:50:17;;;;;;;6.50;2.40;;;-15.30;99.90;;;;;;1903313;75;25902;-87
2023/12/04 23:53:06;;;;;;;7.73;2.27;;;-15.40;99.90;;;;;;1892592;74;25542;-87
2023/12/04 23:55:54;;;;;;;5.73;2.70;;;-15.30;99.90;;;;;;1897202;74;25427;-87
